createdAt,value
2018-12-19T00:02:08.303Z,95645.33
2018-12-19T00:04:38.624Z,95649.59
2018-12-19T00:07:09.000Z,95653.09
2018-12-19T00:09:39.490Z,95654.95
2018-12-19T00:12:11.014Z,95653.86
2018-12-19T00:14:41.661Z,95654.94
2018-12-19T00:17:12.390Z,95656.16
2018-12-19T00:19:42.823Z,95655.09
2018-12-19T00:22:13.668Z,95646.53
2018-12-19T00:24:44.169Z,95648.55
2018-12-19T00:27:14.847Z,95645.23
2018-12-19T00:29:45.123Z,95648.23
2018-12-19T00:32:16.456Z,95644.97
2018-12-19T00:34:46.702Z,95650.69
2018-12-19T00:37:17.042Z,95651.06
2018-12-19T00:39:47.646Z,95643.50
2018-12-19T00:42:19.054Z,95659.16
2018-12-19T00:44:49.380Z,95655.36
2018-12-19T00:47:19.667Z,95656.98
2018-12-19T00:49:50.108Z,95651.72
2018-12-19T00:52:20.487Z,95654.64
2018-12-19T00:54:51.142Z,95652.94
2018-12-19T00:57:21.485Z,95656.55
2018-12-19T00:59:51.943Z,95659.61
2018-12-19T01:02:22.847Z,95651.31
2018-12-19T01:04:53.252Z,95646.92
2018-12-19T01:07:23.893Z,95651.27
2018-12-19T01:09:54.369Z,95651.38
2018-12-19T01:12:25.395Z,95653.45
2018-12-19T01:14:55.880Z,95654.56
2018-12-19T01:17:26.587Z,95661.09
2018-12-19T01:19:56.756Z,95656.77
2018-12-19T01:22:27.143Z,95655.33
2018-12-19T01:24:57.691Z,95656.02
2018-12-19T01:27:28.085Z,95652.44
2018-12-19T01:29:58.811Z,95651.78
2018-12-19T01:32:29.744Z,95653.64
2018-12-19T01:35:00.187Z,95649.81
2018-12-19T01:37:30.643Z,95652.82
2018-12-19T01:40:01.050Z,95652.58
2018-12-19T01:42:31.766Z,95651.66
2018-12-19T01:45:02.327Z,95651.05
2018-12-19T01:47:32.846Z,95656.39
2018-12-19T01:50:03.170Z,95652.17
2018-12-19T01:52:33.689Z,95654.00
2018-12-19T01:55:04.507Z,95655.37
2018-12-19T01:57:34.321Z,95654.30
2018-12-19T02:00:05.126Z,95647.53
2018-12-19T02:02:36.100Z,95651.12
2018-12-19T02:05:07.055Z,95657.11
2018-12-19T02:07:37.569Z,95662.01
2018-12-19T02:10:08.187Z,95658.76
2018-12-19T02:12:38.837Z,95660.81
2018-12-19T02:15:08.581Z,95658.18
2018-12-19T02:17:38.450Z,95661.67
2018-12-19T02:20:08.082Z,95661.90
2018-12-19T02:22:37.652Z,95659.23
2018-12-19T02:25:07.367Z,95663.84
2018-12-19T02:27:37.318Z,95667.52
2018-12-19T02:30:07.705Z,95610.75
2018-12-19T02:32:37.417Z,95662.52
2018-12-19T02:35:07.190Z,95660.13
2018-12-19T02:37:36.923Z,95657.38
2018-12-19T02:40:07.117Z,95661.50
2018-12-19T02:42:36.834Z,95667.66
2018-12-19T02:45:06.698Z,95666.55
2018-12-19T02:47:36.367Z,95671.09
2018-12-19T02:50:06.928Z,95665.84
2018-12-19T02:52:36.678Z,95669.28
2018-12-19T02:55:06.336Z,95665.80
2018-12-19T02:57:36.144Z,95669.30
2018-12-19T03:00:06.575Z,95669.17
2018-12-19T03:02:36.122Z,95669.84
2018-12-19T03:05:06.098Z,95663.63
2018-12-19T03:07:35.882Z,95675.27
2018-12-19T03:10:06.235Z,95677.53
2018-12-19T03:12:35.857Z,95680.79
2018-12-19T03:15:06.349Z,95675.67
2018-12-19T03:17:35.986Z,95682.47
2018-12-19T03:20:05.874Z,95686.97
2018-12-19T03:22:35.607Z,95690.47
2018-12-19T03:25:05.360Z,95690.22
2018-12-19T03:27:35.111Z,95688.93
2018-12-19T03:30:06.066Z,95699.42
2018-12-19T03:32:36.384Z,95697.52
2018-12-19T03:35:06.314Z,95705.44
2018-12-19T03:37:36.069Z,95707.75
2018-12-19T03:40:06.583Z,95705.14
2018-12-19T03:42:37.185Z,95706.46
2018-12-19T03:45:07.405Z,95708.34
2018-12-19T03:47:37.218Z,95713.78
2018-12-19T03:50:07.330Z,95709.08
2018-12-19T03:52:37.998Z,95705.64
2018-12-19T03:55:07.824Z,95708.61
2018-12-19T03:57:37.783Z,95711.53
2018-12-19T04:00:07.992Z,95708.80
2018-12-19T04:02:37.689Z,95710.09
2018-12-19T04:05:07.605Z,95714.23
2018-12-19T04:07:37.410Z,95719.75
2018-12-19T04:10:07.561Z,95721.44
2018-12-19T04:12:37.278Z,95720.14
2018-12-19T04:15:07.101Z,95730.23
2018-12-19T04:17:37.687Z,95723.81
2018-12-19T04:20:08.728Z,95730.52
2018-12-19T04:22:39.127Z,95731.13
2018-12-19T04:25:09.654Z,95734.80
2018-12-19T04:27:40.011Z,95735.55
2018-12-19T04:30:10.894Z,95733.96
2018-12-19T04:32:42.711Z,95739.73
2018-12-19T04:35:12.331Z,95731.44
2018-12-19T04:37:42.171Z,95734.86
2018-12-19T04:40:12.553Z,95738.38
2018-12-19T04:42:43.328Z,95746.38
2018-12-19T04:45:13.810Z,95739.74
2018-12-19T04:47:44.492Z,95750.96
2018-12-19T04:50:14.281Z,95754.97
2018-12-19T04:52:44.817Z,95753.14
2018-12-19T04:55:14.416Z,95753.38
2018-12-19T04:57:44.054Z,95754.83
2018-12-19T05:00:13.823Z,95751.84
2018-12-19T05:02:43.419Z,95761.50
2018-12-19T05:05:13.222Z,95748.63
2018-12-19T05:07:42.963Z,95759.41
2018-12-19T05:10:12.697Z,95763.31
2018-12-19T05:12:42.372Z,95757.96
2018-12-19T05:15:12.019Z,95762.23
2018-12-19T05:17:41.755Z,95768.43
2018-12-19T05:20:12.578Z,95763.23
2018-12-19T05:22:42.231Z,95765.49
2018-12-19T05:25:14.271Z,95769.64
2018-12-19T05:27:43.911Z,95762.37
2018-12-19T05:30:13.759Z,95775.64
2018-12-19T05:32:45.254Z,95777.58
2018-12-19T05:35:15.711Z,95773.64
2018-12-19T05:37:45.434Z,95779.94
2018-12-19T05:40:18.922Z,95784.52
2018-12-19T05:42:47.974Z,95784.25
2018-12-19T05:45:17.512Z,95791.13
2018-12-19T05:47:47.214Z,95792.28
2018-12-19T05:50:17.689Z,95797.58
2018-12-19T05:52:47.481Z,95801.83
2018-12-19T05:55:17.242Z,95806.62
2018-12-19T05:57:46.946Z,95798.64
2018-12-19T06:00:16.813Z,95806.58
2018-12-19T06:02:46.552Z,95804.78
2018-12-19T06:05:16.274Z,95811.09
2018-12-19T06:07:46.067Z,95813.99
2018-12-19T06:10:15.740Z,95814.70
2018-12-19T06:12:45.461Z,95815.74
2018-12-19T06:15:15.055Z,95819.19
2018-12-19T06:17:44.717Z,95820.56
2018-12-19T06:20:14.551Z,95824.81
2018-12-19T06:22:44.379Z,95826.29
2018-12-19T06:25:14.146Z,95829.36
2018-12-19T06:27:43.965Z,95828.27
2018-12-19T06:30:13.686Z,95828.94
2018-12-19T06:32:43.612Z,95836.76
2018-12-19T06:35:13.293Z,95835.75
2018-12-19T06:37:43.041Z,95840.86
2018-12-19T06:40:12.819Z,95847.92
2018-12-19T06:42:42.656Z,95845.67
2018-12-19T06:45:12.408Z,95857.83
2018-12-19T06:47:42.238Z,95857.28
2018-12-19T06:50:12.011Z,95850.20
2018-12-19T06:52:41.720Z,95858.89
2018-12-19T06:55:11.480Z,95854.94
2018-12-19T06:57:41.216Z,95860.38
2018-12-19T07:00:11.448Z,95856.89
2018-12-19T07:02:41.180Z,95864.66
2018-12-19T07:05:10.983Z,95859.70
2018-12-19T07:07:40.657Z,95867.23
2018-12-19T07:10:10.470Z,95867.56
2018-12-19T07:12:40.139Z,95867.44
2018-12-19T07:15:09.953Z,95872.56
2018-12-19T07:17:40.171Z,95870.86
2018-12-19T07:20:10.589Z,95871.25
2018-12-19T07:22:40.409Z,95873.30
2018-12-19T07:25:10.461Z,95878.85
2018-12-19T07:27:40.180Z,95886.31
2018-12-19T07:30:10.388Z,95880.83
2018-12-19T07:32:40.106Z,95882.42
2018-12-19T07:35:09.939Z,95890.16
2018-12-19T07:37:39.576Z,95892.60
2018-12-19T07:40:09.246Z,95894.55
2018-12-19T07:42:38.994Z,95889.48
2018-12-19T07:45:08.715Z,95886.90
2018-12-19T07:47:38.410Z,95896.03
2018-12-19T07:50:08.256Z,95903.09
2018-12-19T07:52:38.047Z,95904.90
2018-12-19T07:55:07.752Z,95900.64
2018-12-19T07:57:37.494Z,95906.23
2018-12-19T08:00:07.496Z,95911.06
2018-12-19T08:02:37.228Z,95909.80
2018-12-19T08:05:07.734Z,95916.48
2018-12-19T08:07:37.352Z,95920.81
2018-12-19T08:10:08.164Z,95923.65
2018-12-19T08:12:37.793Z,95925.00
2018-12-19T08:15:07.408Z,95939.82
2018-12-19T08:17:37.030Z,95911.71
2018-12-19T08:20:07.872Z,95918.13
2018-12-19T08:22:37.698Z,95919.17
2018-12-19T08:25:07.412Z,95910.78
2018-12-19T08:27:37.168Z,95912.70
2018-12-19T08:30:09.108Z,95908.81
2018-12-19T08:32:39.153Z,95909.09
2018-12-19T08:35:08.986Z,95899.41
2018-12-19T08:37:38.732Z,95908.89
2018-12-19T08:40:08.872Z,95900.31
2018-12-19T08:42:38.758Z,95900.68
2018-12-19T08:45:08.459Z,95893.50
2018-12-19T08:47:38.211Z,95897.78
2018-12-19T08:50:09.965Z,95900.70
2018-12-19T08:52:40.307Z,95900.22
2018-12-19T08:55:10.140Z,95892.06
2018-12-19T08:57:39.912Z,95896.06
2018-12-19T09:00:11.892Z,95897.36
2018-12-19T09:02:42.261Z,95899.47
2018-12-19T09:05:12.040Z,95895.22
2018-12-19T09:07:41.733Z,95893.23
2018-12-19T09:10:11.492Z,95893.32
2018-12-19T09:12:41.210Z,95887.00
2018-12-19T09:15:10.886Z,95880.59
2018-12-19T09:17:40.554Z,95878.16
2018-12-19T09:20:10.880Z,95877.81
2018-12-19T09:22:40.676Z,95874.60
2018-12-19T09:25:10.397Z,95875.39
2018-12-19T09:27:40.129Z,95870.88
2018-12-19T09:30:10.164Z,95881.63
2018-12-19T09:32:40.044Z,95863.89
2018-12-19T09:35:09.755Z,95865.17
2018-12-19T09:37:39.589Z,95852.60
2018-12-19T09:40:09.743Z,95851.83
2018-12-19T09:42:39.590Z,95843.88
2018-12-19T09:45:09.260Z,95842.80
2018-12-19T09:47:39.103Z,95842.94
2018-12-19T09:50:08.787Z,95846.30
2018-12-19T09:52:38.529Z,95849.77
2018-12-19T09:55:08.283Z,95851.11
2018-12-19T09:57:37.953Z,95848.92
2018-12-19T10:00:12.082Z,95855.30
2018-12-19T10:02:42.398Z,95839.16
2018-12-19T10:05:12.049Z,95853.08
2018-12-19T10:07:41.703Z,95845.16
2018-12-19T10:10:11.359Z,95844.53
2018-12-19T10:12:41.184Z,95834.86
2018-12-19T10:15:10.856Z,95842.45
2018-12-19T10:17:40.990Z,95838.95
2018-12-19T10:20:11.038Z,95839.31
2018-12-19T10:22:40.789Z,95835.16
2018-12-19T10:25:13.988Z,95836.45
2018-12-19T10:27:44.030Z,95839.84
2018-12-19T10:30:15.155Z,95834.50
2018-12-19T10:32:47.800Z,95835.06
2018-12-19T10:35:17.574Z,95836.72
2018-12-19T10:37:47.344Z,95840.76
2018-12-19T10:40:17.297Z,95834.83
2018-12-19T10:42:47.445Z,95831.69
2018-12-19T10:45:17.265Z,95836.22
2018-12-19T10:47:46.972Z,95838.38
2018-12-19T10:50:16.766Z,95839.72
2018-12-19T10:52:46.520Z,95842.08
2018-12-19T10:55:16.227Z,95840.83
2018-12-19T10:57:45.961Z,95839.40
2018-12-19T11:00:20.626Z,95844.28
2018-12-19T11:02:51.132Z,95841.55
2018-12-19T11:05:20.870Z,95848.64
2018-12-19T11:07:50.664Z,95845.77
2018-12-19T11:10:20.343Z,95849.25
2018-12-19T11:12:50.004Z,95841.80
2018-12-19T11:15:19.753Z,95846.44
2018-12-19T11:17:49.475Z,95847.23
2018-12-19T11:20:19.172Z,95845.72
2018-12-19T11:22:48.915Z,95844.19
2018-12-19T11:25:18.635Z,95843.93
2018-12-19T11:27:48.355Z,95843.80
2018-12-19T11:30:18.098Z,95843.84
2018-12-19T11:32:48.063Z,95837.50
2018-12-19T11:35:17.795Z,95837.22
2018-12-19T11:37:47.493Z,95837.52
2018-12-19T11:40:17.261Z,95836.55
2018-12-19T11:42:47.178Z,95835.86
2018-12-19T11:45:17.044Z,95823.94
2018-12-19T11:47:46.766Z,95835.50
2018-12-19T11:50:16.410Z,95821.95
2018-12-19T11:52:46.150Z,95824.45
2018-12-19T11:55:15.821Z,95815.19
2018-12-19T11:57:45.838Z,95815.00
2018-12-19T12:00:15.659Z,95812.87
2018-12-19T12:02:45.455Z,95812.58
2018-12-19T12:05:15.188Z,95810.38
2018-12-19T12:07:45.060Z,95806.23
2018-12-19T12:10:14.856Z,95808.89
2018-12-19T12:12:44.591Z,95806.66
2018-12-19T12:15:14.270Z,95808.02
2018-12-19T12:17:44.088Z,95813.50
2018-12-19T12:20:13.798Z,95815.75
2018-12-19T12:22:43.575Z,95808.90
2018-12-19T12:25:13.313Z,95811.75
2018-12-19T12:27:43.067Z,95812.12
2018-12-19T12:30:12.900Z,95801.30
2018-12-19T12:32:42.532Z,95714.32
2018-12-19T12:35:12.280Z,95809.47
2018-12-19T12:37:41.944Z,95803.69
2018-12-19T12:40:11.681Z,95801.39
2018-12-19T12:42:41.466Z,95797.47
2018-12-19T12:45:11.471Z,95802.72
2018-12-19T12:47:41.306Z,95798.16
2018-12-19T12:50:11.020Z,95799.81
2018-12-19T12:52:40.721Z,95805.20
2018-12-19T12:55:10.561Z,95807.28
2018-12-19T12:57:40.311Z,95803.28
2018-12-19T13:00:10.425Z,95806.36
2018-12-19T13:02:40.081Z,95803.20
2018-12-19T13:05:09.787Z,95809.36
2018-12-19T13:07:39.575Z,95815.72
2018-12-19T13:10:10.229Z,95810.86
2018-12-19T13:12:40.775Z,95813.05
2018-12-19T13:15:10.582Z,95809.03
2018-12-19T13:17:40.502Z,95816.16
2018-12-19T13:20:10.147Z,95810.83
2018-12-19T13:22:39.783Z,95808.84
2018-12-19T13:25:09.654Z,95811.38
2018-12-19T13:27:39.419Z,95807.60
2018-12-19T13:30:41.011Z,95817.44
2018-12-19T13:33:10.820Z,95812.95
2018-12-19T13:35:40.646Z,95817.72
2018-12-19T13:38:10.438Z,95815.47
2018-12-19T13:40:40.222Z,95821.72
2018-12-19T13:43:10.009Z,95823.06
2018-12-19T13:45:40.192Z,95822.90
2018-12-19T13:48:09.989Z,95823.52
2018-12-19T13:50:39.762Z,95830.45
2018-12-19T13:53:09.512Z,95832.17
2018-12-19T13:55:39.315Z,95835.50
2018-12-19T13:58:09.071Z,95840.80
2018-12-19T14:00:38.845Z,95846.73
2018-12-19T14:03:08.588Z,95848.59
2018-12-19T14:05:38.270Z,95851.06
2018-12-19T14:08:08.069Z,95857.66
2018-12-19T14:10:37.878Z,95864.56
2018-12-19T14:13:07.637Z,95854.30
2018-12-19T14:15:37.335Z,95863.50
2018-12-19T14:18:07.146Z,95864.77
2018-12-19T14:20:36.904Z,95814.91
2018-12-19T14:23:06.769Z,95862.48
2018-12-19T14:25:36.596Z,95864.89
2018-12-19T14:28:06.387Z,95864.13
2018-12-19T14:30:36.068Z,95869.68
2018-12-19T14:33:05.851Z,95874.34
2018-12-19T14:35:35.648Z,95878.25
2018-12-19T14:38:05.400Z,95878.75
2018-12-19T14:40:35.153Z,95877.12
2018-12-19T14:43:04.908Z,95883.83
2018-12-19T14:45:34.666Z,95886.92
2018-12-19T14:48:04.803Z,95891.22
2018-12-19T14:50:34.488Z,95889.80
2018-12-19T14:53:04.195Z,95892.07
2018-12-19T14:55:33.983Z,95893.02
2018-12-19T14:58:03.701Z,95901.77
2018-12-19T15:00:33.499Z,95899.98
2018-12-19T15:03:03.106Z,95903.55
2018-12-19T15:05:33.021Z,95914.05
2018-12-19T15:08:03.181Z,95912.57
2018-12-19T15:10:34.849Z,95919.27
2018-12-19T15:13:04.693Z,95920.17
2018-12-19T15:15:34.433Z,95921.72
2018-12-19T15:18:04.115Z,95919.17
2018-12-19T15:20:35.173Z,95923.05
2018-12-19T15:23:04.916Z,95923.86
2018-12-19T15:25:34.636Z,95926.00
2018-12-19T15:28:04.402Z,95934.79
2018-12-19T15:30:34.875Z,95939.95
2018-12-19T15:33:04.759Z,95943.92
2018-12-19T15:35:34.322Z,95946.29
2018-12-19T15:38:04.050Z,95957.84
2018-12-19T15:40:33.746Z,95957.23
2018-12-19T15:43:03.496Z,95960.45
2018-12-19T15:45:40.181Z,95961.98
2018-12-19T15:48:09.995Z,95958.03
2018-12-19T15:50:39.679Z,95967.78
2018-12-19T15:53:09.424Z,95963.64
2018-12-19T15:55:39.270Z,95969.34
2018-12-19T15:58:09.005Z,95970.83
2018-12-19T16:00:38.721Z,95976.25
2018-12-19T16:03:08.400Z,95976.78
2018-12-19T16:05:38.035Z,95976.77
2018-12-19T16:08:07.756Z,95980.19
2018-12-19T16:10:37.487Z,95981.97
2018-12-19T16:13:07.306Z,95989.38
2018-12-19T16:15:37.033Z,95983.72
2018-12-19T16:18:06.804Z,95984.83
2018-12-19T16:20:36.552Z,95995.27
2018-12-19T16:23:06.402Z,95996.38
2018-12-19T16:25:36.179Z,95998.06
2018-12-19T16:28:05.953Z,95999.33
2018-12-19T16:30:35.777Z,95998.27
2018-12-19T16:34:08.361Z,96003.72
2018-12-19T16:36:38.301Z,96008.90
2018-12-19T16:39:09.794Z,96010.92
2018-12-19T16:41:39.516Z,96024.16
2018-12-19T16:44:09.319Z,96025.25
2018-12-19T16:46:39.455Z,96031.53
2018-12-19T16:49:09.122Z,96032.60
2018-12-19T16:51:39.043Z,96035.73
2018-12-19T16:54:08.772Z,96037.98
2018-12-19T16:56:38.339Z,96032.20
2018-12-19T16:59:08.089Z,96036.83
2018-12-19T17:01:37.895Z,96035.72
2018-12-19T17:04:07.856Z,96038.11
2018-12-19T17:06:37.860Z,96040.38
2018-12-19T17:09:08.872Z,96034.95
2018-12-19T17:11:39.498Z,96043.88
2018-12-19T17:14:09.098Z,96039.64
2018-12-19T17:16:38.702Z,96041.11
2018-12-19T17:19:08.509Z,96038.32
2018-12-19T17:21:38.234Z,96041.83
2018-12-19T17:24:08.007Z,96041.59
2018-12-19T17:26:37.784Z,96048.09
2018-12-19T17:29:07.430Z,96046.87
2018-12-19T17:31:37.242Z,96050.73
2018-12-19T17:34:07.035Z,96048.33
2018-12-19T17:36:36.727Z,96048.89
2018-12-19T17:39:07.800Z,96054.47
2018-12-19T17:41:38.490Z,96058.91
2018-12-19T17:44:08.294Z,96054.52
2018-12-19T17:46:38.027Z,96056.65
2018-12-19T17:49:08.126Z,96063.30
2018-12-19T17:51:37.936Z,96062.48
2018-12-19T17:54:07.632Z,96066.20
2018-12-19T17:56:37.413Z,96063.16
2018-12-19T17:59:06.956Z,96067.72
2018-12-19T18:01:36.692Z,96067.64
2018-12-19T18:04:06.453Z,96072.42
2018-12-19T18:06:36.327Z,96072.19
2018-12-19T18:09:07.761Z,96079.34
2018-12-19T18:11:38.581Z,96084.45
2018-12-19T18:14:08.340Z,96086.92
2018-12-19T18:16:38.124Z,96090.44
2018-12-19T18:19:07.867Z,96087.58
2018-12-19T18:21:37.943Z,96087.58
2018-12-19T18:24:07.782Z,96087.08
2018-12-19T18:26:37.463Z,96090.41
2018-12-19T18:29:07.164Z,96089.16
2018-12-19T18:31:36.916Z,95818.82
2018-12-19T18:34:06.770Z,96096.23
2018-12-19T18:36:37.915Z,96097.23
2018-12-19T18:39:10.137Z,96103.38
2018-12-19T18:41:40.406Z,96102.91
2018-12-19T18:44:10.027Z,96102.16
2018-12-19T18:46:39.938Z,96109.81
2018-12-19T18:49:10.464Z,96105.87
2018-12-19T18:51:43.396Z,96111.63
2018-12-19T18:54:13.094Z,96107.52
2018-12-19T18:56:42.883Z,96107.98
2018-12-19T18:59:12.645Z,96107.25
2018-12-19T19:01:42.798Z,96108.38
2018-12-19T19:04:12.667Z,96107.27
2018-12-19T19:06:42.437Z,96104.38
2018-12-19T19:09:12.244Z,96105.00
2018-12-19T19:11:42.083Z,96104.55
2018-12-19T19:14:11.760Z,96105.59
2018-12-19T19:16:41.364Z,96101.30
2018-12-19T19:19:11.186Z,96106.20
2018-12-19T19:21:41.027Z,96103.27
2018-12-19T19:24:10.924Z,96101.66
2018-12-19T19:26:40.736Z,96106.74
2018-12-19T19:29:10.533Z,96108.92
2018-12-19T19:31:40.274Z,96108.81
2018-12-19T19:34:10.104Z,96110.27
2018-12-19T19:36:40.048Z,96108.98
2018-12-19T19:39:09.734Z,96112.56
2018-12-19T19:41:39.500Z,96108.14
2018-12-19T19:44:09.116Z,96111.10
2018-12-19T19:46:38.738Z,96115.17
2018-12-19T19:49:08.395Z,96122.79
2018-12-19T19:51:38.423Z,96127.53
2018-12-19T19:54:08.153Z,96134.20
2018-12-19T19:56:37.809Z,96139.17
2018-12-19T19:59:07.557Z,96138.46
2018-12-19T20:01:37.303Z,96142.40
2018-12-19T20:04:07.102Z,96148.17
2018-12-19T20:06:36.915Z,96141.94
2018-12-19T20:09:09.292Z,96147.59
2018-12-19T20:11:39.831Z,96154.20
2018-12-19T20:14:09.628Z,96160.03
2018-12-19T20:16:44.543Z,96156.01
2018-12-19T20:19:14.348Z,96154.92
2018-12-19T20:21:44.819Z,96159.45
2018-12-19T20:24:14.711Z,96159.77
2018-12-19T20:26:44.518Z,96164.97
2018-12-19T20:29:14.278Z,96168.08
2018-12-19T20:31:43.965Z,96169.13
2018-12-19T20:34:13.620Z,96166.91
2018-12-19T20:36:43.357Z,96171.66
2018-12-19T20:39:12.995Z,96174.50
2018-12-19T20:41:42.671Z,96177.44
2018-12-19T20:44:12.294Z,96172.38
2018-12-19T20:46:42.101Z,96172.69
2018-12-19T20:49:11.824Z,96177.44
2018-12-19T20:51:42.015Z,96178.80
2018-12-19T20:54:11.839Z,96180.38
2018-12-19T20:56:41.629Z,96179.06
2018-12-19T20:59:11.384Z,96177.41
2018-12-19T21:01:41.159Z,96185.77
2018-12-19T21:04:10.965Z,96178.38
2018-12-19T21:06:40.692Z,96172.13
2018-12-19T21:09:10.561Z,96172.63
2018-12-19T21:11:40.247Z,96170.45
2018-12-19T21:14:10.022Z,96170.73
2018-12-19T21:16:44.694Z,96165.05
2018-12-19T21:19:14.529Z,96166.94
2018-12-19T21:21:44.434Z,96167.94
2018-12-19T21:24:14.033Z,96171.66
2018-12-19T21:26:43.722Z,96171.84
2018-12-19T21:29:13.388Z,96168.63
2018-12-19T21:31:43.155Z,96164.70
2018-12-19T21:34:12.821Z,96161.08
2018-12-19T21:36:42.583Z,96163.91
2018-12-19T21:39:12.878Z,96165.51
2018-12-19T21:41:42.543Z,96169.53
2018-12-19T21:44:12.198Z,96170.75
2018-12-19T21:46:42.070Z,96164.94
2018-12-19T21:49:11.937Z,96171.39
2018-12-19T21:51:41.656Z,96170.28
2018-12-19T21:54:11.435Z,96174.11
2018-12-19T21:56:41.270Z,96170.16
2018-12-19T21:59:11.079Z,96174.56
2018-12-19T22:01:40.872Z,96169.80
2018-12-19T22:04:10.638Z,96171.66
2018-12-19T22:06:40.376Z,96173.84
2018-12-19T22:09:11.107Z,96179.28
2018-12-19T22:11:40.901Z,96181.08
2018-12-19T22:14:10.693Z,96189.36
2018-12-19T22:16:45.647Z,96187.22
2018-12-19T22:19:16.115Z,96184.80
2018-12-19T22:21:45.769Z,96185.73
2018-12-19T22:24:15.598Z,96187.14
2018-12-19T22:26:45.355Z,96200.31
2018-12-19T22:29:15.066Z,96192.77
2018-12-19T22:31:44.802Z,96192.46
2018-12-19T22:34:14.524Z,96195.36
2018-12-19T22:36:44.310Z,96194.16
2018-12-19T22:39:19.207Z,96197.16
2018-12-19T22:41:49.286Z,96194.83
2018-12-19T22:44:18.932Z,96188.65
2018-12-19T22:46:48.718Z,96188.83
2018-12-19T22:49:18.555Z,96188.62
2018-12-19T22:51:48.503Z,96194.77
2018-12-19T22:54:18.447Z,96191.66
2018-12-19T22:56:48.199Z,96198.16
2018-12-19T22:59:24.278Z,96202.61
2018-12-19T23:01:58.990Z,96211.60
2018-12-19T23:04:28.871Z,96210.20
2018-12-19T23:06:58.610Z,96204.19
2018-12-19T23:09:29.350Z,96206.67
2018-12-19T23:11:59.106Z,96204.59
2018-12-19T23:14:28.906Z,96208.30
2018-12-19T23:17:00.781Z,96200.94
2018-12-19T23:19:30.555Z,96204.82
2018-12-19T23:22:00.300Z,96201.38
2018-12-19T23:24:30.026Z,96198.84
2018-12-19T23:26:59.759Z,96200.28
2018-12-19T23:29:29.577Z,96198.66
2018-12-19T23:31:59.385Z,96202.45
2018-12-19T23:34:29.250Z,96206.43
2018-12-19T23:36:59.203Z,96204.13
2018-12-19T23:39:29.038Z,96204.01
2018-12-19T23:41:58.806Z,96199.62
2018-12-19T23:44:32.841Z,96204.48
2018-12-19T23:47:03.603Z,96204.00
2018-12-19T23:49:33.656Z,96203.58
2018-12-19T23:52:03.437Z,96196.21
2018-12-19T23:54:33.242Z,96198.07
2018-12-19T23:57:03.311Z,96202.23
2018-12-19T23:59:33.009Z,96203.13
